createdAt,value
2018-11-29T00:01:00.387Z,101080.98
2018-11-29T00:03:30.777Z,101074.54
2018-11-29T00:06:01.164Z,101069.14
2018-11-29T00:08:31.263Z,101074.34
2018-11-29T00:11:02.666Z,101061.33
2018-11-29T00:13:32.870Z,101078.13
2018-11-29T00:16:03.065Z,101083.28
2018-11-29T00:18:33.736Z,101092.23
2018-11-29T00:21:04.217Z,101089.27
2018-11-29T00:23:34.993Z,101080.45
2018-11-29T00:26:05.189Z,101091.76
2018-11-29T00:28:36.372Z,101074.88
2018-11-29T00:31:09.562Z,101075.23
2018-11-29T00:33:39.777Z,101073.92
2018-11-29T00:36:09.937Z,101071.05
2018-11-29T00:38:40.190Z,101068.16
2018-11-29T00:41:10.499Z,101064.47
2018-11-29T00:43:40.805Z,101058.81
2018-11-29T00:46:10.970Z,101059.31
2018-11-29T00:48:41.208Z,101061.69
2018-11-29T00:51:11.443Z,101055.25
2018-11-29T00:53:41.512Z,101061.94
2018-11-29T00:56:11.702Z,101055.11
2018-11-29T00:58:41.919Z,101060.22
2018-11-29T01:01:13.707Z,101055.35
2018-11-29T01:03:44.015Z,101060.63
2018-11-29T01:06:14.345Z,101053.34
2018-11-29T01:08:44.546Z,101064.57
2018-11-29T01:11:14.919Z,101066.38
2018-11-29T01:13:45.105Z,101067.02
2018-11-29T01:16:15.240Z,101066.94
2018-11-29T01:18:45.315Z,101058.28
2018-11-29T01:21:15.464Z,101057.09
2018-11-29T01:23:45.619Z,101057.72
2018-11-29T01:26:15.745Z,101055.88
2018-11-29T01:28:45.979Z,101060.52
2018-11-29T01:31:16.126Z,101059.67
2018-11-29T01:33:46.211Z,101069.78
2018-11-29T01:36:16.399Z,101073.38
2018-11-29T01:38:46.558Z,101072.86
2018-11-29T01:41:16.708Z,101064.52
2018-11-29T01:43:46.944Z,101061.20
2018-11-29T01:46:17.183Z,101062.02
2018-11-29T01:48:47.366Z,101050.47
2018-11-29T01:51:17.687Z,101046.72
2018-11-29T01:53:47.745Z,101062.02
2018-11-29T01:56:17.850Z,101060.58
2018-11-29T01:58:48.425Z,101061.82
2018-11-29T02:01:19.956Z,101064.19
2018-11-29T02:03:50.193Z,101063.98
2018-11-29T02:06:20.334Z,101053.14
2018-11-29T02:08:50.387Z,101055.13
2018-11-29T02:11:20.610Z,101054.89
2018-11-29T02:13:50.787Z,101054.45
2018-11-29T02:16:20.921Z,101047.56
2018-11-29T02:18:51.229Z,101042.41
2018-11-29T02:21:21.712Z,101043.98
2018-11-29T02:23:51.758Z,101052.56
2018-11-29T02:26:21.945Z,101054.27
2018-11-29T02:28:52.039Z,101057.00
2018-11-29T02:31:22.139Z,101049.42
2018-11-29T02:33:52.596Z,101049.53
2018-11-29T02:36:22.672Z,101051.48
2018-11-29T02:38:52.859Z,101047.95
2018-11-29T02:41:23.014Z,101042.45
2018-11-29T02:43:53.074Z,101038.20
2018-11-29T02:46:23.236Z,101036.72
2018-11-29T02:48:53.606Z,101035.67
2018-11-29T02:51:23.691Z,101039.08
2018-11-29T02:53:53.861Z,101032.92
2018-11-29T02:56:23.966Z,101033.81
2018-11-29T02:58:54.053Z,101030.44
2018-11-29T03:01:24.308Z,101025.29
2018-11-29T03:03:54.505Z,101018.98
2018-11-29T03:06:24.565Z,101018.24
2018-11-29T03:08:56.302Z,101024.67
2018-11-29T03:11:26.528Z,101028.94
2018-11-29T03:13:56.714Z,101029.23
2018-11-29T03:16:26.848Z,101026.64
2018-11-29T03:18:57.034Z,101027.69
2018-11-29T03:21:27.184Z,101031.52
2018-11-29T03:23:57.275Z,101031.17
2018-11-29T03:26:27.552Z,101030.91
2018-11-29T03:28:57.628Z,101025.09
2018-11-29T03:31:27.839Z,101011.15
2018-11-29T03:33:57.951Z,101016.45
2018-11-29T03:36:28.109Z,101019.40
2018-11-29T03:38:58.255Z,101013.04
2018-11-29T03:41:28.589Z,101018.84
2018-11-29T03:43:58.830Z,101019.34
2018-11-29T03:46:28.998Z,101021.25
2018-11-29T03:48:59.130Z,101011.05
2018-11-29T03:51:29.280Z,101017.56
2018-11-29T03:53:59.433Z,101011.74
2018-11-29T03:56:29.588Z,101013.63
2018-11-29T03:58:59.711Z,101014.30
2018-11-29T04:01:29.842Z,101008.08
2018-11-29T04:04:00.177Z,101008.08
2018-11-29T04:06:30.278Z,101004.93
2018-11-29T04:09:00.404Z,101011.72
2018-11-29T04:11:30.561Z,101013.02
2018-11-29T04:14:01.817Z,101015.77
2018-11-29T04:16:34.571Z,101015.17
2018-11-29T04:19:05.185Z,101017.11
2018-11-29T04:21:35.341Z,101016.06
2018-11-29T04:24:05.789Z,101013.31
2018-11-29T04:26:35.939Z,101021.19
2018-11-29T04:29:06.356Z,101013.13
2018-11-29T04:31:36.455Z,101012.73
2018-11-29T04:34:06.771Z,101010.69
2018-11-29T04:36:37.606Z,101013.17
2018-11-29T04:39:09.246Z,101007.04
2018-11-29T04:41:39.503Z,101004.62
2018-11-29T04:44:09.728Z,101006.77
2018-11-29T04:46:48.484Z,101004.69
2018-11-29T04:49:18.805Z,101004.72
2018-11-29T04:51:49.083Z,100997.21
2018-11-29T04:54:19.287Z,100996.02
2018-11-29T04:56:49.447Z,100995.63
2018-11-29T04:59:19.537Z,100985.20
2018-11-29T05:01:49.693Z,100980.85
2018-11-29T05:04:19.819Z,100982.72
2018-11-29T05:06:49.937Z,100985.31
2018-11-29T05:09:20.065Z,100976.44
2018-11-29T05:11:50.170Z,100973.84
2018-11-29T05:14:20.278Z,100971.58
2018-11-29T05:16:50.384Z,100976.05
2018-11-29T05:19:20.548Z,100965.62
2018-11-29T05:21:50.709Z,100962.25
2018-11-29T05:24:20.839Z,100968.77
2018-11-29T05:26:51.006Z,100963.97
2018-11-29T05:29:20.977Z,100961.39
2018-11-29T05:31:51.197Z,100948.33
2018-11-29T05:34:21.453Z,100958.53
2018-11-29T05:36:51.562Z,100953.09
2018-11-29T05:39:21.744Z,100949.06
2018-11-29T05:41:52.155Z,100952.66
2018-11-29T05:44:22.308Z,100947.77
2018-11-29T05:46:52.550Z,100946.83
2018-11-29T05:49:22.699Z,100950.69
2018-11-29T05:51:52.918Z,100945.45
2018-11-29T05:54:23.129Z,100941.73
2018-11-29T05:56:53.619Z,100947.77
2018-11-29T05:59:23.759Z,100940.29
2018-11-29T06:01:54.909Z,100937.23
2018-11-29T06:04:25.030Z,100928.89
2018-11-29T06:06:55.266Z,100935.43
2018-11-29T06:09:25.808Z,100927.81
2018-11-29T06:11:55.940Z,100931.64
2018-11-29T06:14:26.075Z,100931.44
2018-11-29T06:16:56.243Z,100925.98
2018-11-29T06:19:26.485Z,100929.43
2018-11-29T06:21:56.638Z,100932.15
2018-11-29T06:24:27.072Z,100929.88
2018-11-29T06:26:57.250Z,100927.16
2018-11-29T06:29:27.406Z,100933.22
2018-11-29T06:31:57.609Z,100931.58
2018-11-29T06:34:27.835Z,100934.95
2018-11-29T06:36:57.987Z,100934.72
2018-11-29T06:39:28.169Z,100936.50
2018-11-29T06:41:58.388Z,100932.78
2018-11-29T06:44:28.652Z,100921.63
2018-11-29T06:46:58.829Z,100923.84
2018-11-29T06:49:29.101Z,100930.08
2018-11-29T06:51:59.301Z,100933.02
2018-11-29T06:54:29.398Z,100924.61
2018-11-29T06:56:59.869Z,100922.32
2018-11-29T06:59:30.124Z,100922.41
2018-11-29T07:02:00.565Z,100921.97
2018-11-29T07:04:30.787Z,100924.51
2018-11-29T07:07:01.175Z,100924.51
2018-11-29T07:09:31.317Z,100916.63
2018-11-29T07:12:01.519Z,100912.17
2018-11-29T07:14:31.629Z,100910.91
2018-11-29T07:17:01.898Z,100915.20
2018-11-29T07:19:32.091Z,100911.42
2018-11-29T07:22:02.421Z,100911.26
2018-11-29T07:24:32.599Z,100902.75
2018-11-29T07:27:02.785Z,100908.33
2018-11-29T07:29:32.972Z,100895.83
2018-11-29T07:32:03.281Z,100894.98
2018-11-29T07:34:33.548Z,100896.17
2018-11-29T07:37:03.845Z,100900.75
2018-11-29T07:39:33.963Z,100897.56
2018-11-29T07:42:04.238Z,100893.11
2018-11-29T07:44:34.856Z,100888.88
2018-11-29T07:47:05.032Z,100893.39
2018-11-29T07:49:35.219Z,100894.25
2018-11-29T07:52:05.609Z,100891.69
2018-11-29T07:54:35.877Z,100889.92
2018-11-29T07:57:06.072Z,100890.55
2018-11-29T07:59:36.276Z,100890.66
2018-11-29T08:02:06.670Z,100895.75
2018-11-29T08:04:36.934Z,100889.30
2018-11-29T08:07:07.198Z,100892.09
2018-11-29T08:09:37.433Z,100891.51
2018-11-29T08:12:07.697Z,100890.92
2018-11-29T08:14:37.881Z,100899.25
2018-11-29T08:17:08.090Z,100895.46
2018-11-29T08:19:38.283Z,100893.73
2018-11-29T08:22:08.447Z,100890.45
2018-11-29T08:24:38.634Z,100884.84
2018-11-29T08:27:08.890Z,100882.16
2018-11-29T08:29:39.098Z,100875.27
2018-11-29T08:32:09.326Z,100879.08
2018-11-29T08:34:39.542Z,100883.50
2018-11-29T08:37:09.802Z,100877.63
2018-11-29T08:39:39.910Z,100872.98
2018-11-29T08:42:10.141Z,100866.91
2018-11-29T08:44:40.285Z,100873.98
2018-11-29T08:47:10.378Z,100879.50
2018-11-29T08:49:40.543Z,100875.08
2018-11-29T08:52:10.726Z,100867.22
2018-11-29T08:54:40.960Z,100867.20
2018-11-29T08:57:11.366Z,100871.93
2018-11-29T08:59:41.491Z,100874.90
2018-11-29T09:02:11.774Z,100883.06
2018-11-29T09:04:41.914Z,100888.16
2018-11-29T09:07:12.156Z,100889.73
2018-11-29T09:09:42.316Z,100887.44
2018-11-29T09:12:12.806Z,100894.44
2018-11-29T09:14:43.024Z,100894.98
2018-11-29T09:17:13.236Z,100900.78
2018-11-29T09:19:43.503Z,100896.53
2018-11-29T09:22:13.705Z,100896.88
2018-11-29T09:24:43.888Z,100896.23
2018-11-29T09:27:14.157Z,100895.24
2018-11-29T09:29:44.378Z,100896.77
2018-11-29T09:32:14.579Z,100894.18
2018-11-29T09:34:44.683Z,100896.57
2018-11-29T09:37:15.012Z,100897.80
2018-11-29T09:39:45.440Z,100901.19
2018-11-29T09:42:15.621Z,100894.63
2018-11-29T09:44:45.924Z,100899.53
2018-11-29T09:47:16.242Z,100887.77
2018-11-29T09:49:46.451Z,100890.34
2018-11-29T09:52:16.727Z,100885.84
2018-11-29T09:54:46.965Z,100877.20
2018-11-29T09:57:17.184Z,100876.55
2018-11-29T09:59:47.380Z,100871.71
2018-11-29T10:02:17.525Z,100864.26
2018-11-29T10:04:47.734Z,100860.63
2018-11-29T10:07:17.920Z,100868.83
2018-11-29T10:09:48.285Z,100870.66
2018-11-29T10:12:18.568Z,100857.13
2018-11-29T10:14:48.786Z,100868.95
2018-11-29T10:17:18.930Z,100867.57
2018-11-29T10:19:49.086Z,100866.79
2018-11-29T10:22:19.305Z,100861.83
2018-11-29T10:24:49.589Z,100852.08
2018-11-29T10:27:19.776Z,100850.28
2018-11-29T10:29:49.930Z,100845.84
2018-11-29T10:32:20.098Z,100839.25
2018-11-29T10:34:50.216Z,100830.13
2018-11-29T10:37:20.437Z,100820.30
2018-11-29T10:39:50.512Z,100813.30
2018-11-29T10:42:20.843Z,100802.73
2018-11-29T10:44:51.035Z,100832.11
2018-11-29T10:47:21.390Z,100817.96
2018-11-29T10:49:51.542Z,100805.22
2018-11-29T10:52:21.682Z,100795.63
2018-11-29T10:54:51.812Z,100781.16
2018-11-29T10:57:22.053Z,100778.77
2018-11-29T10:59:52.298Z,100794.24
2018-11-29T11:02:27.522Z,100786.70
2018-11-29T11:04:57.797Z,100787.12
2018-11-29T11:07:28.017Z,100777.82
2018-11-29T11:09:58.186Z,100774.59
2018-11-29T11:12:28.441Z,100756.69
2018-11-29T11:14:58.601Z,100746.02
2018-11-29T11:17:28.950Z,100755.80
2018-11-29T11:19:59.155Z,100774.08
2018-11-29T11:22:29.391Z,100782.05
2018-11-29T11:24:59.569Z,100792.73
2018-11-29T11:27:29.738Z,100791.98
2018-11-29T11:29:59.983Z,100794.26
2018-11-29T11:32:30.186Z,100796.48
2018-11-29T11:35:00.477Z,100772.13
2018-11-29T11:37:30.868Z,100764.77
2018-11-29T11:40:01.205Z,100755.84
2018-11-29T11:42:31.417Z,100745.81
2018-11-29T11:45:01.551Z,100760.48
2018-11-29T11:47:31.724Z,100748.66
2018-11-29T11:50:01.883Z,100751.23
2018-11-29T11:52:33.548Z,100749.98
2018-11-29T11:55:02.262Z,100746.69
2018-11-29T11:57:32.517Z,100730.84
2018-11-29T12:00:02.746Z,100701.43
2018-11-29T12:02:33.275Z,100654.69
2018-11-29T12:05:03.332Z,100673.44
2018-11-29T12:07:33.496Z,100655.38
2018-11-29T12:10:03.714Z,100643.72
2018-11-29T12:12:33.924Z,100619.86
2018-11-29T12:15:04.181Z,100608.14
2018-11-29T12:17:34.734Z,100575.31
2018-11-29T12:20:05.516Z,100534.00
2018-11-29T12:22:35.842Z,100496.72
2018-11-29T12:25:07.731Z,100506.14
2018-11-29T12:27:37.987Z,100496.38
2018-11-29T12:30:20.872Z,100502.35
2018-11-29T12:32:51.406Z,100482.66
2018-11-29T12:35:21.536Z,100471.70
2018-11-29T12:37:53.197Z,100502.67
2018-11-29T12:40:22.237Z,100512.38
2018-11-29T12:42:52.534Z,100509.84
2018-11-29T12:45:22.925Z,100515.92
2018-11-29T12:47:53.700Z,100513.96
2018-11-29T12:50:27.981Z,100520.81
2018-11-29T12:52:58.115Z,100551.62
2018-11-29T12:55:28.633Z,100572.89
2018-11-29T12:58:05.294Z,100653.19
2018-11-29T13:00:29.231Z,100608.70
2018-11-29T13:03:00.571Z,100634.58
2018-11-29T13:05:30.906Z,100623.85
2018-11-29T13:08:01.075Z,100634.81
2018-11-29T13:10:31.204Z,100619.58
2018-11-29T13:13:01.460Z,100625.91
2018-11-29T13:15:33.416Z,100618.38
2018-11-29T13:18:06.155Z,100603.75
2018-11-29T13:20:36.362Z,100612.05
2018-11-29T13:23:07.101Z,100611.67
2018-11-29T13:25:37.436Z,100595.22
2018-11-29T13:28:08.652Z,100583.34
2018-11-29T13:30:42.155Z,100566.59
2018-11-29T13:33:12.812Z,100569.06
2018-11-29T13:35:43.269Z,100558.95
2018-11-29T13:38:16.100Z,100530.23
2018-11-29T13:40:48.331Z,100497.06
2018-11-29T13:43:18.587Z,100495.11
2018-11-29T13:45:48.805Z,100505.19
2018-11-29T13:48:19.047Z,100512.52
2018-11-29T13:50:49.239Z,100514.16
2018-11-29T13:53:19.410Z,100517.92
2018-11-29T13:55:49.716Z,100527.53
2018-11-29T13:58:19.891Z,100537.48
2018-11-29T14:00:50.172Z,100518.67
2018-11-29T14:03:20.492Z,100512.02
2018-11-29T14:05:50.632Z,100521.88
2018-11-29T14:08:20.791Z,100503.09
2018-11-29T14:10:50.970Z,100487.30
2018-11-29T14:13:21.184Z,100466.30
2018-11-29T14:15:51.306Z,100451.16
2018-11-29T14:18:21.827Z,100433.73
2018-11-29T14:20:53.605Z,100436.38
2018-11-29T14:23:23.770Z,100437.79
2018-11-29T14:25:54.006Z,100428.47
2018-11-29T14:28:24.185Z,100407.64
2018-11-29T14:30:54.620Z,100398.97
2018-11-29T14:33:24.735Z,100391.52
2018-11-29T14:35:56.092Z,100387.25
2018-11-29T14:38:26.249Z,100407.89
2018-11-29T14:40:56.418Z,100401.76
2018-11-29T14:43:26.550Z,100395.95
2018-11-29T14:45:57.566Z,100396.59
2018-11-29T14:48:27.875Z,100406.37
2018-11-29T14:51:02.409Z,100401.50
2018-11-29T14:53:28.406Z,100408.62
2018-11-29T14:55:58.725Z,100419.96
2018-11-29T14:58:30.178Z,100430.29
2018-11-29T15:01:00.355Z,100458.86
2018-11-29T15:03:30.488Z,100468.47
2018-11-29T15:06:00.684Z,100455.69
2018-11-29T15:08:30.808Z,100462.27
2018-11-29T15:11:01.973Z,100462.34
2018-11-29T15:13:32.157Z,100455.73
2018-11-29T15:16:02.452Z,100452.97
2018-11-29T15:18:32.569Z,100455.07
2018-11-29T15:21:02.814Z,100458.17
2018-11-29T15:23:32.902Z,100466.31
2018-11-29T15:26:03.159Z,100468.11
2018-11-29T15:28:33.942Z,100473.53
2018-11-29T15:31:04.187Z,100457.39
2018-11-29T15:33:34.593Z,100455.36
2018-11-29T15:36:04.914Z,100438.98
2018-11-29T15:38:36.324Z,100440.70
2018-11-29T15:41:06.618Z,100446.97
2018-11-29T15:43:36.855Z,100441.47
2018-11-29T15:46:07.490Z,100445.97
2018-11-29T15:48:37.655Z,100454.20
2018-11-29T15:51:09.261Z,100455.30
2018-11-29T15:53:39.435Z,100452.30
2018-11-29T15:56:09.513Z,100460.97
2018-11-29T15:58:44.093Z,100456.09
2018-11-29T16:01:14.248Z,100466.03
2018-11-29T16:03:44.923Z,100449.41
2018-11-29T16:06:15.064Z,100445.05
2018-11-29T16:08:45.202Z,100429.91
2018-11-29T16:11:15.299Z,100434.69
2018-11-29T16:13:46.196Z,100439.05
2018-11-29T16:16:16.439Z,100441.13
2018-11-29T16:18:46.584Z,100444.16
2018-11-29T16:21:16.712Z,100447.92
2018-11-29T16:23:46.817Z,100446.55
2018-11-29T16:26:16.919Z,100433.10
2018-11-29T16:28:47.208Z,100425.56
2018-11-29T16:31:18.091Z,100424.56
2018-11-29T16:33:48.261Z,100424.77
2018-11-29T16:36:18.615Z,100422.62
2018-11-29T16:38:48.730Z,100431.69
2018-11-29T16:41:18.839Z,100425.10
2018-11-29T16:43:48.957Z,100418.09
2018-11-29T16:46:19.181Z,100434.84
2018-11-29T16:48:49.421Z,100441.59
2018-11-29T16:51:19.530Z,100437.70
2018-11-29T16:53:49.649Z,100428.95
2018-11-29T16:56:19.773Z,100433.06
2018-11-29T16:58:50.757Z,100439.55
2018-11-29T17:01:20.873Z,100449.65
2018-11-29T17:03:51.028Z,100461.72
2018-11-29T17:06:21.131Z,100453.41
2018-11-29T17:08:51.350Z,100456.04
2018-11-29T17:11:21.513Z,100455.81
2018-11-29T17:13:51.754Z,100461.98
2018-11-29T17:16:22.057Z,100467.34
2018-11-29T17:18:52.317Z,100461.88
2018-11-29T17:21:22.449Z,100468.20
2018-11-29T17:23:55.039Z,100455.34
2018-11-29T17:26:25.303Z,100459.65
2018-11-29T17:28:55.527Z,100461.40
2018-11-29T17:31:25.655Z,100468.12
2018-11-29T17:33:55.821Z,100450.83
2018-11-29T17:36:26.007Z,100457.10
2018-11-29T17:38:56.360Z,100459.73
2018-11-29T17:41:26.479Z,100456.26
2018-11-29T17:43:56.712Z,100460.36
2018-11-29T17:46:27.134Z,100468.63
2018-11-29T17:48:57.959Z,100483.48
2018-11-29T17:51:28.135Z,100486.67
2018-11-29T17:53:58.863Z,100478.36
2018-11-29T17:56:29.005Z,100485.38
2018-11-29T17:59:00.552Z,100485.46
2018-11-29T18:01:31.506Z,100471.70
2018-11-29T18:04:03.461Z,100477.22
2018-11-29T18:06:37.393Z,100476.05
2018-11-29T18:09:13.199Z,100486.73
2018-11-29T18:11:43.418Z,100482.38
2018-11-29T18:14:13.629Z,100489.27
2018-11-29T18:16:43.885Z,100493.17
2018-11-29T18:19:14.751Z,100499.50
2018-11-29T18:21:45.742Z,100496.80
2018-11-29T18:24:16.287Z,100500.98
2018-11-29T18:26:46.409Z,100510.80
2018-11-29T18:29:16.560Z,100515.12
2018-11-29T18:31:48.859Z,100506.33
2018-11-29T18:34:19.360Z,100506.34
2018-11-29T18:36:49.499Z,100504.03
2018-11-29T18:39:19.817Z,100506.84
2018-11-29T18:41:50.090Z,100501.71
2018-11-29T18:44:20.310Z,100508.81
2018-11-29T18:46:50.656Z,100501.12
2018-11-29T18:49:20.901Z,100500.90
2018-11-29T18:51:51.129Z,100504.95
2018-11-29T18:54:21.341Z,100502.05
2018-11-29T18:56:51.562Z,100493.55
2018-11-29T18:59:21.837Z,100483.71
2018-11-29T19:01:52.200Z,100473.95
2018-11-29T19:04:22.835Z,100493.58
2018-11-29T19:06:53.223Z,100492.64
2018-11-29T19:09:23.390Z,100492.89
2018-11-29T19:11:53.488Z,100485.63
2018-11-29T19:14:23.819Z,100489.53
2018-11-29T19:16:54.165Z,100490.02
2018-11-29T19:19:24.395Z,100484.42
2018-11-29T19:21:55.343Z,100474.56
2018-11-29T19:24:25.618Z,100467.59
2018-11-29T19:26:56.189Z,100474.77
2018-11-29T19:29:26.380Z,100470.80
2018-11-29T19:31:56.557Z,100484.22
2018-11-29T19:34:27.621Z,100475.45
2018-11-29T19:36:57.715Z,100470.21
2018-11-29T19:39:29.953Z,100479.47
2018-11-29T19:42:00.802Z,100482.16
2018-11-29T19:44:31.001Z,100492.91
2018-11-29T19:47:01.375Z,100479.98
2018-11-29T19:49:31.565Z,100472.56
2018-11-29T19:52:01.686Z,100467.74
2018-11-29T19:54:31.941Z,100466.53
2018-11-29T19:57:02.110Z,100474.20
2018-11-29T19:59:32.293Z,100464.84
2018-11-29T20:02:02.589Z,100464.80
2018-11-29T20:04:32.791Z,100464.80
2018-11-29T20:07:03.074Z,100464.95
2018-11-29T20:09:33.287Z,100477.81
2018-11-29T20:12:04.213Z,100477.04
2018-11-29T20:14:34.396Z,100481.68
2018-11-29T20:17:04.613Z,100488.37
2018-11-29T20:19:34.889Z,100485.47
2018-11-29T20:22:05.498Z,100482.98
2018-11-29T20:24:35.652Z,100482.41
2018-11-29T20:27:06.232Z,100489.89
2018-11-29T20:29:36.441Z,100491.80
2018-11-29T20:32:06.837Z,100489.15
2018-11-29T20:34:37.066Z,100488.95
2018-11-29T20:37:07.403Z,100488.26
2018-11-29T20:39:37.645Z,100499.72
2018-11-29T20:42:07.727Z,100500.35
2018-11-29T20:44:37.972Z,100492.59
2018-11-29T20:47:08.595Z,100488.64
2018-11-29T20:49:38.866Z,100479.67
2018-11-29T20:52:09.021Z,100473.28
2018-11-29T20:54:39.296Z,100477.08
2018-11-29T20:57:09.318Z,100466.02
2018-11-29T20:59:40.909Z,100477.09
2018-11-29T21:02:11.065Z,100474.11
2018-11-29T21:04:41.394Z,100487.97
2018-11-29T21:07:12.011Z,100475.77
2018-11-29T21:09:42.142Z,100480.34
2018-11-29T21:12:12.213Z,100476.59
2018-11-29T21:14:42.311Z,100475.33
2018-11-29T21:17:12.519Z,100464.52
2018-11-29T21:19:42.726Z,100473.55
2018-11-29T21:22:12.805Z,100477.27
2018-11-29T21:24:43.016Z,100473.34
2018-11-29T21:27:13.230Z,100493.90
2018-11-29T21:29:43.389Z,100487.97
2018-11-29T21:32:13.631Z,100481.73
2018-11-29T21:34:43.828Z,100490.80
2018-11-29T21:37:13.931Z,100489.89
2018-11-29T21:39:44.343Z,100488.78
2018-11-29T21:42:14.585Z,100497.39
2018-11-29T21:44:45.297Z,100492.67
2018-11-29T21:47:15.898Z,100493.05
2018-11-29T21:49:46.572Z,100504.42
2018-11-29T21:52:17.535Z,100503.36
2018-11-29T21:54:48.666Z,100497.92
2018-11-29T21:57:20.332Z,100495.69
2018-11-29T21:59:51.480Z,100491.83
2018-11-29T22:02:22.608Z,100494.66
2018-11-29T22:04:52.751Z,100494.21
2018-11-29T22:07:23.058Z,100479.79
2018-11-29T22:09:53.239Z,100483.11
2018-11-29T22:12:23.384Z,100490.15
2018-11-29T22:14:55.096Z,100493.38
2018-11-29T22:17:25.941Z,100494.86
2018-11-29T22:19:56.223Z,100502.87
2018-11-29T22:22:28.402Z,100497.80
2018-11-29T22:24:57.629Z,100495.97
2018-11-29T22:27:35.717Z,100489.86
2018-11-29T22:30:10.243Z,100479.81
2018-11-29T22:32:40.784Z,100481.41
2018-11-29T22:35:12.128Z,100485.47
2018-11-29T22:37:43.330Z,100483.09
2018-11-29T22:40:13.652Z,100478.28
2018-11-29T22:42:43.798Z,100470.70
2018-11-29T22:45:14.262Z,100468.76
2018-11-29T22:47:44.434Z,100474.08
2018-11-29T22:50:14.555Z,100479.30
2018-11-29T22:52:44.687Z,100483.83
2018-11-29T22:55:14.878Z,100463.59
2018-11-29T22:57:45.034Z,100473.93
2018-11-29T23:00:19.837Z,100468.75
2018-11-29T23:02:51.008Z,100475.41
2018-11-29T23:05:21.292Z,100466.96
2018-11-29T23:07:51.412Z,100478.98
2018-11-29T23:10:21.559Z,100475.07
2018-11-29T23:12:51.648Z,100475.45
2018-11-29T23:15:21.862Z,100466.69
2018-11-29T23:17:52.036Z,100475.82
2018-11-29T23:20:22.279Z,100469.44
2018-11-29T23:22:52.379Z,100461.16
2018-11-29T23:25:22.523Z,100467.91
2018-11-29T23:27:52.710Z,100460.63
2018-11-29T23:30:22.924Z,100456.56
2018-11-29T23:32:52.978Z,100456.78
2018-11-29T23:35:23.098Z,100463.44
2018-11-29T23:37:53.241Z,100462.75
2018-11-29T23:40:23.509Z,100452.41
2018-11-29T23:42:53.663Z,100456.30
2018-11-29T23:45:23.927Z,100454.36
2018-11-29T23:47:54.183Z,100443.86
2018-11-29T23:50:24.302Z,100450.20
2018-11-29T23:52:54.474Z,100447.91
2018-11-29T23:55:24.750Z,100457.89
2018-11-29T23:57:54.890Z,100452.72
